createdAt,value
2022-12-16T00:04:20.125Z,11.04
2022-12-16T00:09:28.789Z,10.93
2022-12-16T00:14:37.070Z,10.97
2022-12-16T00:19:46.529Z,10.95
2022-12-16T00:24:56.668Z,10.94
2022-12-16T00:29:55.483Z,10.45
2022-12-16T00:35:04.521Z,10.99
2022-12-16T00:40:13.203Z,10.95
2022-12-16T00:45:21.652Z,10.43
2022-12-16T00:50:30.643Z,10.27
2022-12-16T00:55:40.172Z,10.46
2022-12-16T01:00:48.970Z,9.76
2022-12-16T01:05:57.425Z,9.99
2022-12-16T01:11:06.823Z,9.73
2022-12-16T01:16:15.357Z,9.59
2022-12-16T01:21:24.133Z,9.00
2022-12-16T01:26:32.850Z,8.75
2022-12-16T01:31:41.664Z,8.55
2022-12-16T01:36:50.644Z,8.26
2022-12-16T01:41:59.545Z,8.68
2022-12-16T01:47:08.848Z,8.60
2022-12-16T01:52:17.765Z,9.01
2022-12-16T01:57:25.972Z,8.70
2022-12-16T02:02:35.401Z,8.52
2022-12-16T02:07:43.741Z,8.57
2022-12-16T02:12:51.917Z,7.51
2022-12-16T02:18:00.405Z,7.55
2022-12-16T02:23:09.161Z,8.17
2022-12-16T02:28:17.915Z,7.99
2022-12-16T02:33:26.817Z,8.53
2022-12-16T02:38:35.144Z,8.55
2022-12-16T02:43:43.950Z,7.96
2022-12-16T02:48:52.164Z,9.54
2022-12-16T02:54:01.135Z,7.72
2022-12-16T02:59:09.804Z,7.61
2022-12-16T03:04:18.534Z,7.35
2022-12-16T03:09:27.093Z,7.69
2022-12-16T03:14:35.911Z,6.26
2022-12-16T03:19:44.063Z,7.33
2022-12-16T03:24:53.228Z,7.30
2022-12-16T03:30:01.642Z,7.40
2022-12-16T03:35:10.864Z,7.17
2022-12-16T03:40:19.735Z,6.93
2022-12-16T03:45:28.206Z,7.49
2022-12-16T03:50:36.751Z,7.34
2022-12-16T03:55:45.103Z,7.67
2022-12-16T04:00:53.728Z,7.59
2022-12-16T04:06:02.057Z,8.76
2022-12-16T04:11:10.695Z,8.05
2022-12-16T04:16:19.301Z,8.45
2022-12-16T04:21:27.694Z,8.34
2022-12-16T04:26:36.512Z,8.25
2022-12-16T04:31:44.986Z,8.37
2022-12-16T04:36:53.808Z,8.52
2022-12-16T04:42:02.432Z,8.19
2022-12-16T04:47:11.333Z,8.21
2022-12-16T04:52:19.686Z,8.48
2022-12-16T04:57:28.605Z,8.93
2022-12-16T05:02:37.163Z,8.48
2022-12-16T05:07:45.930Z,8.87
2022-12-16T05:12:54.699Z,8.69
2022-12-16T05:18:03.627Z,9.28
2022-12-16T05:23:12.163Z,9.28
2022-12-16T05:28:21.011Z,8.94
2022-12-16T05:33:29.557Z,9.01
2022-12-16T05:38:38.522Z,8.95
2022-12-16T05:43:47.233Z,9.02
2022-12-16T05:48:56.179Z,9.29
2022-12-16T05:54:04.549Z,9.25
2022-12-16T05:59:13.380Z,9.36
2022-12-16T06:04:22.073Z,11.58
2022-12-16T06:09:30.755Z,9.57
2022-12-16T06:14:39.006Z,8.82
2022-12-16T06:19:47.690Z,9.18
2022-12-16T06:24:56.189Z,8.67
2022-12-16T06:30:05.069Z,9.11
2022-12-16T06:35:13.451Z,9.21
2022-12-16T06:40:22.606Z,10.55
2022-12-16T06:45:34.660Z,11.91
2022-12-16T06:50:44.681Z,12.52
2022-12-16T06:55:47.945Z,12.21
2022-12-16T07:00:56.809Z,11.12
2022-12-16T07:06:05.318Z,11.24
2022-12-16T07:11:17.096Z,11.86
2022-12-16T07:16:22.550Z,11.58
2022-12-16T07:21:31.190Z,10.39
2022-12-16T07:26:39.681Z,11.39
2022-12-16T07:31:48.398Z,11.10
2022-12-16T07:36:56.700Z,11.29
2022-12-16T07:42:05.461Z,10.65
2022-12-16T07:47:14.156Z,10.31
2022-12-16T07:52:22.764Z,10.94
2022-12-16T07:57:31.046Z,10.75
2022-12-16T08:02:40.113Z,10.47
2022-12-16T08:07:48.153Z,10.74
2022-12-16T08:12:57.002Z,10.02
2022-12-16T08:18:05.382Z,9.57
2022-12-16T08:23:13.881Z,9.61
2022-12-16T08:28:21.990Z,9.60
2022-12-16T08:33:30.338Z,15.05
2022-12-16T08:38:39.015Z,11.78
2022-12-16T08:43:47.418Z,10.39
2022-12-16T08:48:55.770Z,9.94
2022-12-16T08:54:04.590Z,9.98
2022-12-16T08:59:13.307Z,10.01
2022-12-16T09:04:21.549Z,10.04
2022-12-16T09:09:29.640Z,10.22
2022-12-16T09:14:39.064Z,11.29
2022-12-16T09:19:47.600Z,11.50
2022-12-16T09:24:56.391Z,11.29
2022-12-16T09:30:04.718Z,13.08
2022-12-16T09:35:13.830Z,11.16
2022-12-16T09:40:20.939Z,10.20
2022-12-16T09:45:29.696Z,10.41
2022-12-16T09:50:37.940Z,13.69
2022-12-16T09:55:46.340Z,12.27
2022-12-16T10:00:54.770Z,12.92
2022-12-16T10:06:02.851Z,11.69
2022-12-16T10:11:11.193Z,11.13
2022-12-16T10:16:20.015Z,10.83
2022-12-16T10:21:27.989Z,17.53
2022-12-16T10:26:36.946Z,25.06
2022-12-16T10:31:45.649Z,18.66
2022-12-16T10:36:54.854Z,13.84
2022-12-16T10:42:03.544Z,13.24
2022-12-16T10:47:12.590Z,12.43
2022-12-16T10:52:20.862Z,12.39
2022-12-16T10:57:29.747Z,12.00
2022-12-16T11:02:38.790Z,11.92
2022-12-16T11:07:47.404Z,11.87
2022-12-16T11:12:55.582Z,12.59
2022-12-16T11:18:04.334Z,11.53
2022-12-16T11:23:12.707Z,11.91
2022-12-16T11:28:21.699Z,11.02
2022-12-16T11:33:30.821Z,11.05
2022-12-16T11:38:38.698Z,11.27
2022-12-16T11:43:47.321Z,11.19
2022-12-16T11:48:56.347Z,10.64
2022-12-16T11:54:04.874Z,10.32
2022-12-16T11:59:13.924Z,11.14
2022-12-16T12:04:22.052Z,11.08
2022-12-16T12:09:30.867Z,10.38
2022-12-16T12:14:39.443Z,10.22
2022-12-16T12:19:48.747Z,10.91
2022-12-16T12:24:58.187Z,10.61
2022-12-16T12:30:05.369Z,10.27
2022-12-16T12:35:13.854Z,10.14
2022-12-16T12:40:22.763Z,10.07
2022-12-16T12:45:31.351Z,9.39
2022-12-16T12:50:40.669Z,10.14
2022-12-16T12:55:49.387Z,10.63
2022-12-16T13:00:59.095Z,11.78
2022-12-16T13:06:07.421Z,12.17
2022-12-16T13:11:15.867Z,10.87
2022-12-16T13:16:24.196Z,13.11
2022-12-16T13:21:32.712Z,12.51
2022-12-16T13:26:41.263Z,11.77
2022-12-16T13:31:50.206Z,10.48
2022-12-16T13:36:58.677Z,10.30
2022-12-16T13:42:07.180Z,9.91
2022-12-16T13:47:15.464Z,9.88
2022-12-16T13:52:24.890Z,10.19
2022-12-16T13:57:33.631Z,10.13
2022-12-16T14:02:42.853Z,12.53
2022-12-16T14:07:51.300Z,10.15
2022-12-16T14:13:00.220Z,11.17
2022-12-16T14:18:08.744Z,10.95
2022-12-16T14:23:39.149Z,12.46
2022-12-16T14:28:25.248Z,11.32
2022-12-16T14:33:34.200Z,10.56
2022-12-16T14:38:42.775Z,10.69
2022-12-16T14:43:51.421Z,11.13
2022-12-16T14:49:00.828Z,11.45
2022-12-16T14:54:09.557Z,10.88
2022-12-16T14:59:17.932Z,11.00
2022-12-16T15:04:27.228Z,10.10
2022-12-16T15:09:35.703Z,9.92
2022-12-16T15:14:44.706Z,9.85
2022-12-16T15:19:53.237Z,9.46
2022-12-16T15:25:02.265Z,10.08
2022-12-16T15:30:10.631Z,10.95
2022-12-16T15:35:19.263Z,9.96
2022-12-16T15:40:28.119Z,10.39
2022-12-16T15:45:36.513Z,10.54
2022-12-16T15:50:45.105Z,10.52
2022-12-16T15:55:53.593Z,10.50
2022-12-16T16:01:02.630Z,10.41
2022-12-16T16:06:11.963Z,10.61
2022-12-16T16:11:23.784Z,9.82
2022-12-16T16:16:22.667Z,10.87
2022-12-16T16:21:30.937Z,10.87
2022-12-16T16:26:39.692Z,11.31
2022-12-16T16:31:48.415Z,10.99
2022-12-16T16:36:57.841Z,11.26
2022-12-16T16:42:06.219Z,10.74
2022-12-16T16:47:14.803Z,11.10
2022-12-16T16:52:24.040Z,11.51
2022-12-16T16:57:33.101Z,11.58
2022-12-16T17:02:41.748Z,12.03
2022-12-16T17:07:53.749Z,11.57
2022-12-16T17:13:04.094Z,11.79
2022-12-16T17:18:06.358Z,12.86
2022-12-16T17:23:15.861Z,12.19
2022-12-16T17:28:18.357Z,11.63
2022-12-16T17:33:28.060Z,11.28
2022-12-16T17:38:37.458Z,11.46
2022-12-16T17:43:46.235Z,11.35
2022-12-16T17:48:55.141Z,10.92
2022-12-16T17:54:12.129Z,10.89
2022-12-16T17:59:12.363Z,10.48
2022-12-16T18:04:20.865Z,10.20
2022-12-16T18:09:29.637Z,10.03
2022-12-16T18:14:37.792Z,9.63
2022-12-16T18:19:46.593Z,10.13
2022-12-16T18:24:55.424Z,10.34
2022-12-16T18:30:04.557Z,10.27
2022-12-16T18:35:08.028Z,10.12
2022-12-16T18:40:16.691Z,10.14
2022-12-16T18:45:26.429Z,11.04
2022-12-16T18:50:38.125Z,10.62
2022-12-16T18:55:43.395Z,10.09
2022-12-16T19:00:53.178Z,10.03
2022-12-16T19:05:54.593Z,10.41
2022-12-16T19:11:03.774Z,9.54
2022-12-16T19:16:12.243Z,9.89
2022-12-16T19:21:21.256Z,10.23
2022-12-16T19:26:29.773Z,10.43
2022-12-16T19:31:38.431Z,9.94
2022-12-16T19:36:47.072Z,10.47
2022-12-16T19:47:03.997Z,10.50
2022-12-16T19:52:12.852Z,10.17
2022-12-16T19:57:21.471Z,10.50
2022-12-16T20:02:30.658Z,10.66
2022-12-16T20:07:38.902Z,10.89
2022-12-16T20:12:47.737Z,10.17
2022-12-16T20:17:56.307Z,11.05
2022-12-16T20:23:04.757Z,10.00
2022-12-16T20:28:13.108Z,10.47
2022-12-16T20:33:21.908Z,10.51
2022-12-16T20:38:30.040Z,9.77
2022-12-16T20:43:39.021Z,10.82
2022-12-16T20:48:46.811Z,11.01
2022-12-16T20:53:56.468Z,10.27
2022-12-16T20:59:03.196Z,9.75
2022-12-16T21:04:12.125Z,10.17
2022-12-16T21:09:20.885Z,10.12
2022-12-16T21:14:29.913Z,9.83
2022-12-16T21:19:38.366Z,9.73
2022-12-16T21:24:47.027Z,9.68
2022-12-16T21:29:56.043Z,9.65
2022-12-16T21:35:05.620Z,9.16
2022-12-16T21:40:13.874Z,9.57
2022-12-16T21:45:22.455Z,10.20
2022-12-16T21:50:32.848Z,10.11
2022-12-16T21:55:32.363Z,10.36
2022-12-16T22:00:40.779Z,10.70
2022-12-16T22:05:49.195Z,10.41
2022-12-16T22:10:57.709Z,10.25
2022-12-16T22:16:07.148Z,10.17
2022-12-16T22:21:15.413Z,10.85
2022-12-16T22:26:24.185Z,10.28
2022-12-16T22:31:32.744Z,10.64
2022-12-16T22:36:41.194Z,10.96
2022-12-16T22:41:49.606Z,10.73
2022-12-16T22:46:58.377Z,10.63
2022-12-16T22:52:06.822Z,10.36
2022-12-16T22:57:15.617Z,10.26
2022-12-16T23:02:23.975Z,10.11
2022-12-16T23:07:32.800Z,9.95
2022-12-16T23:12:41.454Z,10.70
2022-12-16T23:17:50.304Z,10.47
2022-12-16T23:22:58.530Z,9.95
2022-12-16T23:28:07.425Z,10.85
2022-12-16T23:33:15.859Z,10.63
2022-12-16T23:38:24.540Z,10.50
2022-12-16T23:43:33.009Z,10.13
2022-12-16T23:48:42.114Z,9.63
2022-12-16T23:53:50.491Z,9.54
2022-12-16T23:58:59.595Z,9.67
